createdAt,value
2018-12-16T00:00:47.340Z,13.80
2018-12-16T00:01:45.880Z,14.10
2018-12-16T00:02:49.902Z,14.10
2018-12-16T00:03:47.836Z,13.60
2018-12-16T00:04:50.053Z,13.40
2018-12-16T00:05:46.411Z,13.30
2018-12-16T00:06:46.631Z,13.30
2018-12-16T00:07:48.350Z,13.90
2018-12-16T00:08:48.886Z,13.80
2018-12-16T00:09:47.216Z,13.90
2018-12-16T00:10:49.467Z,14.30
2018-12-16T00:11:54.337Z,14.60
2018-12-16T00:12:47.856Z,14.50
2018-12-16T00:13:49.923Z,14.80
2018-12-16T00:14:51.846Z,15.40
2018-12-16T00:15:49.838Z,15.50
2018-12-16T00:16:49.847Z,15.40
2018-12-16T00:17:50.386Z,15.90
2018-12-16T00:18:52.356Z,15.30
2018-12-16T00:19:49.932Z,15.00
2018-12-16T00:20:49.004Z,14.90
2018-12-16T00:21:49.199Z,15.70
2018-12-16T00:22:51.340Z,15.60
2018-12-16T00:23:49.536Z,15.20
2018-12-16T00:24:52.318Z,15.80
2018-12-16T00:25:51.835Z,15.80
2018-12-16T00:26:51.840Z,15.50
2018-12-16T00:27:52.857Z,15.00
2018-12-16T00:28:52.333Z,14.90
2018-12-16T00:29:54.332Z,15.20
2018-12-16T00:30:51.670Z,15.00
2018-12-16T00:31:52.937Z,15.50
2018-12-16T00:32:52.818Z,15.30
2018-12-16T00:33:52.854Z,16.00
2018-12-16T00:34:51.392Z,15.90
2018-12-16T00:35:53.355Z,15.20
2018-12-16T00:36:51.771Z,15.80
2018-12-16T00:37:52.901Z,15.60
2018-12-16T00:38:53.832Z,16.10
2018-12-16T00:39:55.918Z,15.60
2018-12-16T00:40:54.357Z,16.00
2018-12-16T00:41:55.321Z,16.60
2018-12-16T00:42:54.352Z,16.20
2018-12-16T00:43:53.071Z,16.70
2018-12-16T00:44:54.986Z,17.10
2018-12-16T00:45:54.292Z,17.30
2018-12-16T00:46:53.423Z,16.80
2018-12-16T00:47:53.613Z,17.20
2018-12-16T00:48:57.332Z,17.30
2018-12-16T00:49:55.836Z,16.90
2018-12-16T00:50:55.151Z,17.10
2018-12-16T00:51:57.363Z,17.00
2018-12-16T00:52:54.661Z,17.00
2018-12-16T00:53:54.815Z,17.30
2018-12-16T00:54:55.075Z,17.00
2018-12-16T00:55:58.839Z,17.10
2018-12-16T00:56:56.069Z,17.50
2018-12-16T00:57:55.503Z,16.20
2018-12-16T00:58:58.300Z,17.30
2018-12-16T00:59:58.288Z,17.40
2018-12-16T01:00:57.856Z,17.80
2018-12-16T01:01:57.833Z,16.50
2018-12-16T01:02:56.200Z,16.30
2018-12-16T01:03:57.363Z,16.60
2018-12-16T01:04:58.778Z,16.70
2018-12-16T01:05:58.362Z,17.60
2018-12-16T01:06:56.897Z,17.10
2018-12-16T01:07:57.637Z,16.80
2018-12-16T01:08:57.151Z,16.50
2018-12-16T01:09:57.372Z,16.70
2018-12-16T01:11:01.330Z,17.10
2018-12-16T01:11:59.394Z,16.80
2018-12-16T01:13:00.834Z,17.00
2018-12-16T01:13:58.155Z,16.50
2018-12-16T01:14:59.832Z,16.20
2018-12-16T01:16:01.072Z,15.90
2018-12-16T01:17:02.397Z,15.60
2018-12-16T01:17:58.738Z,15.50
2018-12-16T01:19:04.931Z,15.30
2018-12-16T01:20:00.889Z,15.30
2018-12-16T01:21:00.892Z,16.20
2018-12-16T01:22:00.862Z,15.40
2018-12-16T01:22:59.548Z,15.80
2018-12-16T01:24:00.768Z,15.50
2018-12-16T01:25:01.291Z,15.30
2018-12-16T01:26:01.831Z,15.70
2018-12-16T01:27:05.932Z,16.00
2018-12-16T01:28:02.447Z,16.10
2018-12-16T01:29:02.332Z,15.60
2018-12-16T01:30:04.337Z,15.20
2018-12-16T01:31:02.934Z,15.40
2018-12-16T01:32:01.109Z,15.70
2018-12-16T01:33:02.835Z,16.00
2018-12-16T01:34:06.286Z,16.60
2018-12-16T01:35:05.410Z,15.70
2018-12-16T01:36:07.341Z,15.80
2018-12-16T01:37:03.831Z,15.10
2018-12-16T01:38:02.031Z,15.70
2018-12-16T01:39:03.831Z,15.90
2018-12-16T01:40:07.295Z,15.40
2018-12-16T01:41:06.470Z,16.30
2018-12-16T01:42:04.409Z,15.40
2018-12-16T01:43:06.914Z,15.80
2018-12-16T01:44:04.910Z,15.80
2018-12-16T01:45:04.905Z,15.80
2018-12-16T01:46:10.283Z,16.20
2018-12-16T01:47:04.506Z,15.60
2018-12-16T01:48:05.454Z,16.30
2018-12-16T01:49:05.899Z,16.30
2018-12-16T01:50:05.891Z,16.00
2018-12-16T01:51:04.222Z,16.70
2018-12-16T01:52:05.469Z,15.60
2018-12-16T01:53:06.332Z,16.40
2018-12-16T01:54:05.747Z,15.80
2018-12-16T01:55:04.983Z,15.40
2018-12-16T01:56:05.024Z,16.20
2018-12-16T01:57:06.266Z,16.90
2018-12-16T01:58:09.353Z,16.30
2018-12-16T01:59:07.443Z,16.10
2018-12-16T02:00:05.787Z,16.40
2018-12-16T02:01:08.834Z,16.90
2018-12-16T02:02:07.206Z,16.80
2018-12-16T02:03:07.782Z,17.50
2018-12-16T02:04:06.509Z,16.80
2018-12-16T02:05:06.688Z,16.60
2018-12-16T02:06:08.866Z,18.20
2018-12-16T02:07:10.914Z,17.00
2018-12-16T02:08:08.858Z,17.30
2018-12-16T02:09:07.407Z,17.40
2018-12-16T02:10:07.600Z,17.40
2018-12-16T02:11:12.006Z,18.10
2018-12-16T02:12:09.829Z,16.60
2018-12-16T02:13:11.834Z,17.50
2018-12-16T02:14:08.166Z,18.50
2018-12-16T02:15:08.359Z,17.90
2018-12-16T02:16:10.377Z,18.00
2018-12-16T02:17:10.384Z,17.50
2018-12-16T02:18:10.835Z,17.50
2018-12-16T02:19:09.150Z,16.80
2018-12-16T02:20:10.866Z,17.10
2018-12-16T02:21:10.863Z,16.80
2018-12-16T02:22:15.344Z,18.00
2018-12-16T02:23:09.526Z,16.70
2018-12-16T02:24:13.386Z,17.40
2018-12-16T02:25:11.351Z,17.70
2018-12-16T02:26:10.063Z,18.80
2018-12-16T02:27:10.244Z,19.00
2018-12-16T02:28:15.847Z,18.60
2018-12-16T02:29:11.430Z,19.10
2018-12-16T02:30:10.653Z,19.40
2018-12-16T02:31:16.839Z,19.50
2018-12-16T02:32:17.065Z,20.50
2018-12-16T02:33:11.062Z,20.40
2018-12-16T02:34:12.857Z,19.70
2018-12-16T02:35:12.362Z,19.80
2018-12-16T02:36:13.346Z,19.00
2018-12-16T02:37:12.834Z,20.30
2018-12-16T02:38:13.861Z,19.40
2018-12-16T02:39:13.829Z,20.10
2018-12-16T02:40:15.919Z,19.80
2018-12-16T02:41:12.490Z,19.90
2018-12-16T02:42:13.719Z,19.90
2018-12-16T02:43:14.340Z,20.00
2018-12-16T02:44:18.901Z,19.50
2018-12-16T02:45:13.097Z,20.40
2018-12-16T02:46:14.839Z,19.90
2018-12-16T02:47:13.410Z,19.80
2018-12-16T02:48:13.598Z,19.80
2018-12-16T02:49:19.398Z,19.90
2018-12-16T02:50:14.817Z,20.50
2018-12-16T02:51:14.132Z,19.10
2018-12-16T02:52:15.288Z,19.00
2018-12-16T02:53:15.381Z,20.40
2018-12-16T02:54:14.580Z,20.60
2018-12-16T02:55:16.339Z,19.50
2018-12-16T02:56:15.724Z,19.70
2018-12-16T02:57:15.850Z,20.00
2018-12-16T02:58:18.834Z,20.40
2018-12-16T02:59:17.330Z,19.80
2018-12-16T03:00:17.399Z,20.40
2018-12-16T03:01:16.804Z,19.00
2018-12-16T03:02:15.884Z,19.80
2018-12-16T03:03:23.835Z,20.70
2018-12-16T03:04:16.662Z,20.30
2018-12-16T03:05:17.631Z,19.40
2018-12-16T03:06:18.330Z,20.10
2018-12-16T03:07:17.791Z,19.90
2018-12-16T03:08:18.882Z,19.90
2018-12-16T03:09:18.877Z,21.30
2018-12-16T03:10:23.414Z,21.40
2018-12-16T03:11:29.361Z,22.20
2018-12-16T03:12:19.333Z,22.30
2018-12-16T03:13:18.840Z,21.70
2018-12-16T03:14:19.835Z,22.20
2018-12-16T03:15:18.161Z,23.20
2018-12-16T03:16:20.330Z,22.00
2018-12-16T03:17:19.541Z,21.90
2018-12-16T03:18:18.752Z,21.70
2018-12-16T03:19:19.047Z,21.50
2018-12-16T03:20:20.841Z,22.20
2018-12-16T03:21:19.416Z,21.90
2018-12-16T03:22:19.493Z,21.80
2018-12-16T03:23:21.332Z,20.40
2018-12-16T03:24:19.904Z,21.20
2018-12-16T03:25:21.828Z,20.60
2018-12-16T03:26:20.194Z,21.00
2018-12-16T03:27:20.347Z,21.10
2018-12-16T03:28:20.511Z,20.40
2018-12-16T03:29:24.333Z,20.90
2018-12-16T03:30:23.265Z,21.20
2018-12-16T03:31:22.832Z,21.70
2018-12-16T03:32:22.832Z,21.10
2018-12-16T03:33:22.365Z,22.10
2018-12-16T03:34:23.332Z,21.10
2018-12-16T03:35:23.326Z,21.30
2018-12-16T03:36:23.328Z,21.50
2018-12-16T03:37:22.131Z,20.10
2018-12-16T03:38:24.806Z,19.60
2018-12-16T03:39:24.326Z,19.80
2018-12-16T03:40:22.525Z,20.70
2018-12-16T03:41:22.858Z,19.00
2018-12-16T03:42:24.869Z,20.10
2018-12-16T03:43:26.854Z,20.20
2018-12-16T03:44:24.828Z,19.70
2018-12-16T03:45:25.332Z,19.90
2018-12-16T03:46:30.315Z,19.30
2018-12-16T03:47:24.660Z,21.10
2018-12-16T03:48:23.836Z,19.80
2018-12-16T03:49:23.999Z,19.00
2018-12-16T03:50:28.776Z,18.90
2018-12-16T03:51:25.448Z,20.10
2018-12-16T03:52:26.326Z,18.70
2018-12-16T03:53:25.664Z,19.40
2018-12-16T03:54:28.829Z,19.60
2018-12-16T03:55:25.784Z,19.70
2018-12-16T03:56:27.846Z,18.90
2018-12-16T03:57:27.437Z,19.90
2018-12-16T03:58:28.290Z,19.00
2018-12-16T03:59:31.620Z,18.80
2018-12-16T04:00:33.431Z,19.40
2018-12-16T04:01:28.132Z,19.60
2018-12-16T04:02:26.373Z,18.90
2018-12-16T04:03:28.326Z,18.70
2018-12-16T04:04:28.396Z,18.50
2018-12-16T04:05:26.967Z,18.00
2018-12-16T04:06:28.839Z,17.80
2018-12-16T04:07:28.864Z,18.50
2018-12-16T04:08:30.870Z,19.10
2018-12-16T04:09:33.555Z,19.80
2018-12-16T04:10:29.360Z,19.50
2018-12-16T04:11:29.330Z,19.90
2018-12-16T04:12:29.933Z,19.10
2018-12-16T04:13:30.812Z,19.00
2018-12-16T04:14:28.307Z,19.50
2018-12-16T04:15:28.425Z,19.30
2018-12-16T04:16:28.670Z,20.10
2018-12-16T04:17:28.957Z,20.00
2018-12-16T04:18:30.870Z,19.10
2018-12-16T04:19:31.781Z,19.60
2018-12-16T04:20:33.333Z,19.60
2018-12-16T04:21:30.638Z,19.40
2018-12-16T04:22:31.376Z,19.40
2018-12-16T04:23:37.833Z,20.10
2018-12-16T04:24:30.022Z,19.60
2018-12-16T04:25:30.358Z,19.60
2018-12-16T04:26:31.484Z,19.70
2018-12-16T04:27:33.825Z,20.20
2018-12-16T04:28:32.401Z,19.90
2018-12-16T04:29:31.997Z,19.60
2018-12-16T04:30:33.822Z,20.70
2018-12-16T04:31:31.276Z,20.80
2018-12-16T04:32:37.469Z,20.20
2018-12-16T04:33:37.364Z,20.40
2018-12-16T04:34:32.773Z,21.10
2018-12-16T04:35:33.832Z,20.50
2018-12-16T04:36:33.943Z,21.10
2018-12-16T04:37:33.848Z,21.40
2018-12-16T04:38:36.282Z,20.60
2018-12-16T04:39:33.700Z,20.70
2018-12-16T04:40:34.372Z,21.00
2018-12-16T04:41:40.839Z,21.10
2018-12-16T04:42:34.887Z,21.50
2018-12-16T04:43:35.338Z,22.10
2018-12-16T04:44:34.538Z,21.80
2018-12-16T04:45:35.384Z,21.90
2018-12-16T04:46:36.922Z,22.10
2018-12-16T04:47:34.888Z,21.40
2018-12-16T04:48:39.854Z,21.50
2018-12-16T04:49:36.424Z,22.00
2018-12-16T04:50:38.343Z,22.30
2018-12-16T04:51:34.780Z,21.60
2018-12-16T04:52:41.838Z,21.30
2018-12-16T04:53:37.192Z,21.50
2018-12-16T04:54:35.421Z,22.00
2018-12-16T04:55:36.520Z,21.90
2018-12-16T04:56:37.325Z,21.90
2018-12-16T04:57:37.972Z,22.30
2018-12-16T04:58:37.853Z,23.00
2018-12-16T04:59:37.232Z,22.20
2018-12-16T05:00:36.940Z,21.70
2018-12-16T05:01:36.543Z,23.20
2018-12-16T05:02:38.374Z,22.90
2018-12-16T05:03:38.829Z,22.90
2018-12-16T05:04:38.828Z,22.50
2018-12-16T05:05:37.155Z,22.70
2018-12-16T05:06:37.350Z,21.50
2018-12-16T05:07:41.325Z,22.70
2018-12-16T05:08:39.350Z,22.40
2018-12-16T05:09:37.954Z,22.10
2018-12-16T05:10:39.226Z,21.80
2018-12-16T05:11:39.951Z,21.90
2018-12-16T05:12:43.280Z,22.50
2018-12-16T05:13:39.357Z,22.60
2018-12-16T05:14:40.388Z,22.40
2018-12-16T05:15:38.967Z,21.40
2018-12-16T05:16:40.874Z,21.90
2018-12-16T05:17:44.882Z,22.10
2018-12-16T05:18:41.414Z,22.10
2018-12-16T05:19:45.400Z,21.80
2018-12-16T05:20:41.331Z,21.90
2018-12-16T05:21:39.909Z,22.10
2018-12-16T05:22:41.062Z,21.80
2018-12-16T05:23:42.051Z,21.10
2018-12-16T05:24:43.353Z,21.70
2018-12-16T05:25:41.964Z,22.20
2018-12-16T05:26:41.729Z,21.90
2018-12-16T05:27:42.330Z,22.30
2018-12-16T05:28:40.959Z,21.40
2018-12-16T05:29:41.135Z,20.60
2018-12-16T05:30:41.214Z,21.20
2018-12-16T05:31:42.330Z,21.50
2018-12-16T05:32:41.576Z,21.60
2018-12-16T05:33:57.326Z,21.20
2018-12-16T05:34:41.756Z,21.30
2018-12-16T05:35:42.091Z,21.10
2018-12-16T05:36:43.908Z,20.90
2018-12-16T05:37:43.927Z,21.10
2018-12-16T05:38:42.538Z,21.80
2018-12-16T05:39:44.358Z,20.90
2018-12-16T05:40:44.849Z,21.40
2018-12-16T05:41:43.111Z,21.80
2018-12-16T05:42:44.893Z,21.60
2018-12-16T05:43:46.832Z,22.30
2018-12-16T05:44:43.664Z,21.70
2018-12-16T05:45:44.993Z,21.20
2018-12-16T05:46:45.946Z,21.90
2018-12-16T05:47:45.373Z,20.80
2018-12-16T05:48:46.420Z,21.70
2018-12-16T05:49:49.354Z,22.00
2018-12-16T05:50:47.020Z,21.10
2018-12-16T05:51:45.842Z,21.10
2018-12-16T05:52:52.925Z,20.80
2018-12-16T05:53:48.567Z,20.70
2018-12-16T05:54:48.339Z,21.40
2018-12-16T05:55:51.351Z,20.90
2018-12-16T05:56:46.828Z,20.70
2018-12-16T05:57:47.828Z,21.30
2018-12-16T05:58:48.891Z,21.10
2018-12-16T05:59:48.359Z,20.90
2018-12-16T06:00:50.322Z,21.50
2018-12-16T06:01:46.800Z,20.80
2018-12-16T06:02:47.121Z,20.60
2018-12-16T06:03:48.824Z,21.20
2018-12-16T06:04:49.400Z,20.50
2018-12-16T06:05:49.322Z,21.20
2018-12-16T06:06:48.642Z,21.70
2018-12-16T06:07:50.901Z,21.40
2018-12-16T06:08:49.855Z,21.60
2018-12-16T06:09:48.216Z,21.50
2018-12-16T06:10:48.287Z,21.60
2018-12-16T06:11:51.885Z,20.90
2018-12-16T06:12:52.325Z,21.40
2018-12-16T06:13:50.821Z,21.50
2018-12-16T06:14:50.828Z,21.30
2018-12-16T06:15:50.885Z,21.20
2018-12-16T06:16:49.393Z,21.40
2018-12-16T06:17:51.367Z,21.70
2018-12-16T06:18:49.663Z,21.60
2018-12-16T06:19:58.800Z,21.20
2018-12-16T06:20:49.988Z,21.10
2018-12-16T06:21:51.830Z,21.50
2018-12-16T06:22:52.322Z,21.30
2018-12-16T06:23:55.743Z,21.60
2018-12-16T06:24:54.428Z,21.20
2018-12-16T06:25:50.886Z,20.60
2018-12-16T06:26:58.959Z,21.70
2018-12-16T06:27:55.860Z,21.80
2018-12-16T06:28:53.327Z,22.00
2018-12-16T06:29:55.427Z,21.60
2018-12-16T06:30:53.937Z,21.80
2018-12-16T06:31:58.780Z,21.90
2018-12-16T06:32:53.840Z,21.90
2018-12-16T06:34:07.821Z,21.60
2018-12-16T06:34:55.289Z,22.40
2018-12-16T06:35:56.321Z,20.70
2018-12-16T06:36:54.411Z,20.80
2018-12-16T06:37:52.882Z,21.50
2018-12-16T06:38:54.832Z,21.70
2018-12-16T06:39:54.822Z,21.90
2018-12-16T06:40:59.403Z,21.00
2018-12-16T06:41:55.429Z,21.10
2018-12-16T06:42:53.762Z,20.80
2018-12-16T06:43:53.981Z,21.20
2018-12-16T06:44:57.829Z,21.50
2018-12-16T06:45:56.327Z,21.60
2018-12-16T06:46:55.597Z,21.10
2018-12-16T06:47:54.732Z,21.00
2018-12-16T06:48:56.328Z,21.60
2018-12-16T06:49:55.055Z,20.60
2018-12-16T06:50:56.127Z,20.60
2018-12-16T06:52:10.891Z,19.80
2018-12-16T06:53:01.441Z,20.70
2018-12-16T06:54:02.182Z,20.50
2018-12-16T06:55:01.710Z,20.70
2018-12-16T06:55:55.934Z,20.40
2018-12-16T06:56:56.107Z,19.90
2018-12-16T06:57:59.829Z,20.80
2018-12-16T06:58:56.532Z,20.60
2018-12-16T06:59:56.726Z,20.10
2018-12-16T07:00:57.948Z,20.70
2018-12-16T07:01:59.864Z,20.60
2018-12-16T07:03:00.842Z,20.00
2018-12-16T07:03:57.391Z,20.40
2018-12-16T07:05:00.335Z,21.10
2018-12-16T07:05:57.687Z,20.80
2018-12-16T07:06:58.839Z,20.40
2018-12-16T07:07:59.859Z,19.60
2018-12-16T07:08:59.825Z,20.00
2018-12-16T07:09:58.181Z,20.00
2018-12-16T07:10:59.412Z,20.30
2018-12-16T07:11:58.507Z,20.50
2018-12-16T07:12:58.778Z,20.80
2018-12-16T07:14:02.322Z,20.30
2018-12-16T07:15:02.835Z,20.60
2018-12-16T07:15:59.047Z,20.30
2018-12-16T07:17:00.892Z,20.20
2018-12-16T07:18:00.929Z,21.00
2018-12-16T07:19:01.351Z,20.30
2018-12-16T07:20:07.356Z,20.20
2018-12-16T07:20:59.782Z,19.60
2018-12-16T07:22:00.052Z,20.20
2018-12-16T07:23:01.944Z,21.10
2018-12-16T07:24:00.372Z,20.10
2018-12-16T07:25:02.322Z,20.00
2018-12-16T07:26:00.523Z,19.50
2018-12-16T07:27:00.671Z,19.90
2018-12-16T07:28:02.830Z,19.90
2018-12-16T07:29:02.857Z,19.70
2018-12-16T07:30:01.149Z,19.70
2018-12-16T07:31:01.361Z,20.10
2018-12-16T07:32:03.391Z,21.10
2018-12-16T07:33:03.346Z,20.80
2018-12-16T07:34:02.025Z,21.30
2018-12-16T07:35:03.829Z,21.00
2018-12-16T07:36:02.263Z,21.50
2018-12-16T07:37:03.496Z,20.70
2018-12-16T07:38:02.637Z,20.10
2018-12-16T07:39:06.384Z,20.40
2018-12-16T07:40:08.908Z,20.20
2018-12-16T07:41:04.090Z,19.80
2018-12-16T07:42:06.820Z,21.90
2018-12-16T07:43:03.392Z,21.10
2018-12-16T07:44:05.325Z,20.40
2018-12-16T07:45:03.819Z,22.70
2018-12-16T07:46:03.894Z,21.50
2018-12-16T07:47:05.900Z,21.60
2018-12-16T07:48:04.297Z,22.20
2018-12-16T07:49:06.325Z,22.00
2018-12-16T07:50:08.374Z,22.40
2018-12-16T07:51:04.728Z,22.20
2018-12-16T07:52:04.895Z,20.50
2018-12-16T07:53:13.840Z,20.30
2018-12-16T07:54:05.256Z,21.50
2018-12-16T07:55:06.954Z,20.60
2018-12-16T07:56:09.393Z,21.20
2018-12-16T07:57:05.527Z,21.60
2018-12-16T07:58:05.729Z,22.00
2018-12-16T07:59:07.886Z,21.30
2018-12-16T08:00:07.824Z,21.60
2018-12-16T08:01:06.339Z,21.50
2018-12-16T08:02:06.474Z,20.80
2018-12-16T08:03:08.418Z,21.10
2018-12-16T08:04:09.365Z,20.60
2018-12-16T08:05:08.820Z,21.10
2018-12-16T08:06:07.214Z,20.50
2018-12-16T08:07:10.830Z,20.10
2018-12-16T08:08:09.379Z,19.90
2018-12-16T08:09:08.584Z,20.50
2018-12-16T08:10:09.939Z,20.70
2018-12-16T08:11:11.823Z,20.30
2018-12-16T08:12:09.838Z,19.80
2018-12-16T08:13:08.317Z,19.50
2018-12-16T08:14:12.327Z,20.20
2018-12-16T08:15:08.574Z,19.20
2018-12-16T08:16:09.702Z,19.90
2018-12-16T08:17:13.352Z,20.50
2018-12-16T08:18:08.926Z,20.10
2018-12-16T08:19:09.070Z,19.90
2018-12-16T08:20:12.897Z,20.20
2018-12-16T08:21:15.632Z,19.90
2018-12-16T08:22:09.887Z,20.30
2018-12-16T08:23:11.107Z,20.00
2018-12-16T08:24:10.161Z,20.70
2018-12-16T08:25:10.164Z,20.90
2018-12-16T08:26:10.237Z,22.00
2018-12-16T08:27:13.327Z,21.60
2018-12-16T08:28:10.654Z,22.90
2018-12-16T08:29:14.822Z,20.60
2018-12-16T08:30:12.067Z,21.00
2018-12-16T08:31:14.937Z,21.40
2018-12-16T08:32:17.007Z,22.00
2018-12-16T08:33:13.332Z,21.50
2018-12-16T08:34:11.787Z,23.30
2018-12-16T08:35:12.888Z,23.60
2018-12-16T08:36:13.945Z,24.20
2018-12-16T08:37:12.293Z,25.10
2018-12-16T08:38:14.326Z,26.70
2018-12-16T08:39:16.356Z,26.60
2018-12-16T08:40:18.358Z,27.30
2018-12-16T08:41:16.821Z,26.20
2018-12-16T08:42:14.818Z,26.80
2018-12-16T08:43:14.277Z,27.00
2018-12-16T08:44:13.482Z,26.40
2018-12-16T08:45:15.365Z,26.50
2018-12-16T08:46:13.812Z,27.90
2018-12-16T08:47:14.012Z,29.20
2018-12-16T08:48:15.696Z,27.80
2018-12-16T08:49:18.320Z,29.80
2018-12-16T08:50:16.654Z,30.50
2018-12-16T08:51:16.330Z,32.40
2018-12-16T08:52:20.378Z,32.00
2018-12-16T08:53:15.023Z,31.40
2018-12-16T08:54:16.871Z,32.00
2018-12-16T08:55:16.275Z,30.80
2018-12-16T08:56:17.320Z,29.10
2018-12-16T08:57:17.363Z,31.00
2018-12-16T08:58:15.740Z,29.90
2018-12-16T08:59:18.356Z,30.60
2018-12-16T09:00:16.991Z,29.40
2018-12-16T09:01:16.595Z,29.90
2018-12-16T09:02:17.257Z,29.20
2018-12-16T09:03:16.313Z,27.80
2018-12-16T09:04:16.517Z,26.80
2018-12-16T09:05:18.384Z,26.80
2018-12-16T09:06:16.939Z,27.30
2018-12-16T09:07:18.819Z,27.90
2018-12-16T09:08:18.886Z,27.80
2018-12-16T09:09:19.375Z,26.00
2018-12-16T09:10:17.585Z,26.20
2018-12-16T09:11:17.703Z,26.90
2018-12-16T09:12:19.423Z,26.60
2018-12-16T09:13:21.891Z,27.60
2018-12-16T09:14:19.822Z,26.60
2018-12-16T09:15:18.305Z,26.90
2018-12-16T09:16:20.329Z,25.80
2018-12-16T09:17:18.521Z,26.10
2018-12-16T09:18:18.724Z,25.30
2018-12-16T09:19:20.849Z,26.10
2018-12-16T09:20:22.864Z,25.10
2018-12-16T09:21:19.151Z,25.00
2018-12-16T09:22:19.416Z,25.20
2018-12-16T09:23:19.488Z,24.90
2018-12-16T09:24:19.706Z,24.70
2018-12-16T09:25:19.900Z,25.20
2018-12-16T09:26:21.817Z,23.60
2018-12-16T09:27:21.829Z,24.90
2018-12-16T09:28:22.315Z,25.20
2018-12-16T09:29:22.382Z,25.80
2018-12-16T09:30:22.327Z,25.20
2018-12-16T09:31:24.830Z,25.30
2018-12-16T09:32:22.843Z,25.60
2018-12-16T09:33:22.817Z,25.70
2018-12-16T09:34:22.828Z,25.90
2018-12-16T09:35:23.358Z,25.70
2018-12-16T09:36:25.380Z,26.20
2018-12-16T09:37:23.333Z,26.40
2018-12-16T09:38:22.929Z,29.10
2018-12-16T09:39:23.158Z,29.20
2018-12-16T09:40:22.242Z,26.80
2018-12-16T09:41:23.341Z,27.20
2018-12-16T09:42:24.327Z,27.20
2018-12-16T09:43:24.406Z,30.10
2018-12-16T09:44:26.852Z,30.00
2018-12-16T09:45:24.826Z,28.60
2018-12-16T09:46:24.834Z,29.80
2018-12-16T09:47:26.375Z,29.30
2018-12-16T09:48:23.583Z,28.10
2018-12-16T09:49:23.794Z,29.80
2018-12-16T09:50:23.943Z,32.40
2018-12-16T09:51:25.911Z,31.60
2018-12-16T09:52:25.838Z,30.60
2018-12-16T09:53:40.327Z,29.90
2018-12-16T09:54:24.523Z,29.10
2018-12-16T09:55:24.710Z,29.60
2018-12-16T09:56:24.890Z,27.30
2018-12-16T09:57:28.997Z,27.70
2018-12-16T09:58:26.169Z,27.90
2018-12-16T09:59:25.381Z,26.80
2018-12-16T10:00:25.590Z,26.60
2018-12-16T10:01:31.787Z,26.30
2018-12-16T10:02:25.988Z,25.90
2018-12-16T10:03:27.850Z,27.90
2018-12-16T10:04:28.337Z,26.00
2018-12-16T10:05:30.323Z,26.70
2018-12-16T10:06:26.766Z,27.50
2018-12-16T10:07:26.968Z,26.30
2018-12-16T10:08:28.819Z,25.90
2018-12-16T10:09:27.292Z,26.50
2018-12-16T10:10:29.338Z,26.90
2018-12-16T10:11:29.419Z,26.70
2018-12-16T10:12:31.325Z,27.50
2018-12-16T10:13:29.829Z,26.90
2018-12-16T10:14:28.074Z,27.80
2018-12-16T10:15:29.248Z,28.60
2018-12-16T10:16:32.317Z,27.80
2018-12-16T10:17:32.368Z,27.10
2018-12-16T10:18:30.316Z,28.10
2018-12-16T10:19:29.032Z,27.20
2018-12-16T10:20:30.821Z,28.40
2018-12-16T10:21:33.319Z,27.20
2018-12-16T10:22:31.327Z,27.20
2018-12-16T10:23:33.322Z,27.90
2018-12-16T10:24:31.325Z,27.70
2018-12-16T10:25:29.998Z,27.20
2018-12-16T10:26:36.096Z,28.30
2018-12-16T10:27:30.297Z,30.10
2018-12-16T10:28:34.379Z,29.80
2018-12-16T10:29:31.747Z,29.90
2018-12-16T10:30:30.815Z,30.70
2018-12-16T10:31:32.824Z,29.10
2018-12-16T10:32:32.461Z,30.40
2018-12-16T10:33:31.352Z,29.80
2018-12-16T10:34:34.380Z,29.00
2018-12-16T10:35:33.360Z,30.60
2018-12-16T10:36:31.850Z,32.00
2018-12-16T10:37:33.818Z,31.10
2018-12-16T10:38:32.176Z,30.60
2018-12-16T10:39:32.363Z,30.60
2018-12-16T10:40:34.324Z,30.60
2018-12-16T10:41:32.816Z,32.90
2018-12-16T10:42:32.978Z,32.50
2018-12-16T10:43:36.819Z,33.10
2018-12-16T10:44:35.319Z,55.30
2018-12-16T10:45:33.556Z,48.10
2018-12-16T10:46:35.335Z,35.60
2018-12-16T10:47:35.867Z,39.80
2018-12-16T10:48:35.824Z,36.00
2018-12-16T10:49:35.818Z,36.30
2018-12-16T10:50:35.859Z,38.20
2018-12-16T10:51:35.451Z,36.70
2018-12-16T10:52:34.740Z,34.10
2018-12-16T10:53:34.797Z,33.20
2018-12-16T10:54:36.054Z,33.40
2018-12-16T10:55:35.131Z,32.70
2018-12-16T10:56:36.343Z,30.30
2018-12-16T10:57:35.557Z,30.10
2018-12-16T10:58:35.773Z,31.00
2018-12-16T10:59:37.016Z,30.50
2018-12-16T11:00:36.091Z,31.90
2018-12-16T11:01:39.934Z,32.00
2018-12-16T11:02:38.362Z,33.60
2018-12-16T11:03:38.329Z,32.20
2018-12-16T11:04:38.826Z,32.30
2018-12-16T11:05:37.035Z,33.20
2018-12-16T11:06:37.235Z,32.70
2018-12-16T11:07:39.340Z,33.10
2018-12-16T11:08:39.322Z,31.80
2018-12-16T11:09:39.364Z,32.30
2018-12-16T11:10:43.962Z,32.10
2018-12-16T11:11:39.858Z,31.80
2018-12-16T11:12:38.322Z,31.90
2018-12-16T11:13:38.574Z,31.20
2018-12-16T11:14:40.395Z,30.80
2018-12-16T11:15:40.850Z,30.90
2018-12-16T11:16:39.038Z,28.70
2018-12-16T11:17:40.505Z,29.00
2018-12-16T11:18:39.331Z,29.60
2018-12-16T11:19:41.323Z,29.20
2018-12-16T11:20:40.661Z,27.60
2018-12-16T11:21:45.872Z,27.90
2018-12-16T11:22:41.826Z,28.60
2018-12-16T11:23:43.875Z,28.80
2018-12-16T11:24:42.327Z,28.90
2018-12-16T11:25:44.327Z,27.50
2018-12-16T11:26:40.679Z,27.50
2018-12-16T11:27:42.836Z,27.30
2018-12-16T11:28:42.867Z,27.90
2018-12-16T11:29:41.289Z,27.90
2018-12-16T11:30:44.400Z,27.30
2018-12-16T11:31:45.380Z,29.30
2018-12-16T11:32:42.868Z,27.90
2018-12-16T11:33:43.817Z,28.50
2018-12-16T11:34:42.135Z,28.20
2018-12-16T11:35:44.321Z,28.40
2018-12-16T11:36:42.575Z,27.00
2018-12-16T11:37:46.357Z,27.70
2018-12-16T11:38:43.876Z,28.10
2018-12-16T11:39:44.547Z,27.90
2018-12-16T11:40:43.127Z,27.00
2018-12-16T11:41:44.317Z,26.20
2018-12-16T11:42:43.518Z,26.30
2018-12-16T11:43:43.785Z,26.70
2018-12-16T11:44:45.842Z,26.00
2018-12-16T11:45:47.818Z,25.60
2018-12-16T11:46:44.145Z,27.10
2018-12-16T11:47:45.408Z,27.30
2018-12-16T11:48:50.496Z,26.50
2018-12-16T11:49:44.700Z,27.20
2018-12-16T11:50:46.844Z,27.70
2018-12-16T11:51:46.857Z,25.80
2018-12-16T11:52:45.161Z,25.80
2018-12-16T11:53:45.369Z,25.80
2018-12-16T11:54:47.328Z,26.50
2018-12-16T11:55:47.384Z,26.20
2018-12-16T11:56:47.039Z,25.80
2018-12-16T11:57:46.139Z,25.30
2018-12-16T11:58:48.317Z,25.00
2018-12-16T11:59:46.512Z,26.00
2018-12-16T12:00:46.627Z,26.10
2018-12-16T12:01:47.828Z,26.90
2018-12-16T12:02:47.034Z,27.70
2018-12-16T12:03:52.847Z,27.10
2018-12-16T12:04:51.365Z,26.00
2018-12-16T12:05:49.321Z,25.30
2018-12-16T12:06:50.514Z,25.40
2018-12-16T12:07:49.880Z,24.70
2018-12-16T12:08:48.199Z,25.10
2018-12-16T12:09:48.371Z,24.60
2018-12-16T12:10:48.524Z,24.20
2018-12-16T12:11:50.320Z,24.20
2018-12-16T12:12:50.853Z,24.00
2018-12-16T12:13:49.061Z,25.30
2018-12-16T12:14:49.294Z,24.60
2018-12-16T12:15:49.386Z,23.90
2018-12-16T12:16:49.606Z,25.10
2018-12-16T12:17:51.318Z,24.80
2018-12-16T12:18:51.853Z,23.70
2018-12-16T12:19:51.819Z,24.40
2018-12-16T12:20:50.138Z,25.90
2018-12-16T12:21:50.274Z,24.40
2018-12-16T12:22:50.470Z,24.40
2018-12-16T12:23:50.702Z,24.60
2018-12-16T12:24:50.780Z,23.90
2018-12-16T12:25:52.843Z,25.10
2018-12-16T12:26:54.829Z,23.70
2018-12-16T12:27:52.227Z,24.10
2018-12-16T12:28:51.374Z,24.70
2018-12-16T12:29:53.320Z,24.80
2018-12-16T12:30:53.320Z,25.10
2018-12-16T12:31:53.818Z,25.10
2018-12-16T12:32:55.870Z,24.30
2018-12-16T12:33:53.241Z,24.10
2018-12-16T12:34:52.434Z,25.00
2018-12-16T12:36:03.564Z,25.10
2018-12-16T12:36:54.445Z,25.00
2018-12-16T12:37:52.963Z,24.50
2018-12-16T12:38:53.068Z,26.20
2018-12-16T12:39:53.293Z,25.70
2018-12-16T12:40:53.387Z,25.70
2018-12-16T12:41:55.321Z,26.00
2018-12-16T12:42:55.327Z,26.00
2018-12-16T12:43:53.993Z,26.40
2018-12-16T12:44:54.172Z,26.30
2018-12-16T12:45:55.885Z,25.10
2018-12-16T12:46:55.437Z,27.70
2018-12-16T12:47:54.537Z,26.80
2018-12-16T12:48:54.815Z,26.10
2018-12-16T12:49:55.963Z,25.40
2018-12-16T12:50:56.821Z,25.70
2018-12-16T12:51:59.613Z,26.10
2018-12-16T12:52:56.821Z,25.50
2018-12-16T12:54:01.540Z,26.40
2018-12-16T12:54:57.350Z,26.60